Pisa International Airport

LIRP · 托斯卡纳, 意大利

罗盘
风向 的 风向 230° Pisa International Airport 4L/22R
风: 8 kt, 3 beaufort

8 kt

2 kt
改变
0 1.000 2.000 3.000 4.000 5.000
BKN 2.500 ft
METAR LIRP 020115Z 23008KT 9999 BKN025 18/14 Q1021 NOSIG

METAR Pisa International Airport - LIRP/PSA

Pisa International Airport是Pisa,意大利中的大型机场。 该机场有2条跑道: 4L/22R 和 4R/22L. 该领域的国际民航组织标志是LIRP 它的国际航空运输协会代码是PSA.

这份报告是针对2022年10月2日 03:15, 当地时间在Pisa International Airport进行的。

机场观察

风向为230°,速度为8 kt。

可见度为10 km 或者更多。

有碎云在2.500 ft的高度。 破损或更高的上限为2.500 ft。

温度和风寒是18 °C。 露点为14 °C,相对湿度为78%。 海平面上的气压为1021 hPa (QNH)。

白天

今天,太阳从07:17升起,在18:58降落。 这适用于Pisa International Airport,世界夏令时可能有所不同。 当地时间与世界标准时间之间的时差为+2 小时。 夏令时目前正在进行中。

公司介绍

我们没有关于这个机场的公司信息。

体会

到Vliegles.nl去找飞行课程,跳伞和其他飞行体验。 浏览页面,了解Pisa International Airport附近所有可用的活动。 你也可以使用搜索功能来寻找你所在地附近的特定飞行课程、跳伞或其他飞行体验。

跑道

Id 标题 侧风 逆风 侧风 %
4L/22R 037°-217° 2 kt 8 kt 22 %
4R/22L 037°-217° 2 kt 8 kt 22 %

逆风成分最大的方向会被突出显示,并用于横风计算。 这并不一定意味着这个方向在使用。

乌云

2.500 ft BKN 碎云

温度 & 天气

温度 18 °C
露点 14 °C
相对湿度 78%
Kp-index 2 (0-9)

白天

日出
07:17 (2h 29m)
中午
13:07
日落
18:58

小工具

你想在你的网站上有一个关于Pisa International Airport的当前航空天气(METAR)的小部件吗?

</> 显示HTML代码

我们和第三方通过cookies跟踪您在我们网站上的上网行为。如果您继续,我们认为您同意我们的cookie政策。 了解更多